Time;durP1;ratioP1;P1;durP2;ratioP2;P2;SDS_P1;SDS_P2;PMS_P1;PMS_P2;Temp;Humidity;BMP_temperature;BMP_pressure;BME280_temperature;BME280_humidity;BME280_pressure;Samples;Min_cycle;Max_cycle;Signal;HPM_P1;HPM_P2
2022/12/11 07:02:16;;;;;;;;;18.25;16.00;;;;;;;;5166133;23;45757;-64
2022/12/11 07:04:41;;;;;;;;;11.25;11.25;;;;;;;;5032467;28;45336;-64
2022/12/11 07:07:07;;;;;;;;;17.25;13.00;;;;;;;;5023615;28;45458;-64
2022/12/11 07:09:33;;;;;;;;;23.50;16.75;;;;;;;;5033148;28;46061;-64
2022/12/11 07:11:58;;;;;;;;;18.75;16.50;;;;;;;;5027754;28;45450;-63
2022/12/11 07:14:23;;;;;;;;;18.75;14.75;;;;;;;;5025058;28;45415;-63
2022/12/11 07:16:48;;;;;;;;;25.50;18.00;;;;;;;;5026258;28;45304;-63
2022/12/11 07:19:13;;;;;;;;;18.75;16.25;;;;;;;;5025713;28;45548;-63
2022/12/11 07:21:39;;;;;;;;;22.25;17.00;;;;;;;;5023575;28;45522;-63
2022/12/11 07:24:04;;;;;;;;;21.25;15.00;;;;;;;;5024504;28;46092;-63
2022/12/11 07:26:30;;;;;;;;;22.50;18.50;;;;;;;;5025370;28;45430;-63
2022/12/11 07:28:56;;;;;;;;;29.00;18.50;;;;;;;;5023068;28;46355;-63
2022/12/11 07:31:21;;;;;;;;;24.50;18.00;;;;;;;;5024192;28;45436;-64
2022/12/11 07:33:51;;;;;;;;;24.75;22.25;;;;;;;;5031588;28;45317;-63
2022/12/11 07:36:16;;;;;;;;;26.00;17.00;;;;;;;;5031002;28;45619;-63
2022/12/11 07:38:41;;;;;;;;;22.00;16.75;;;;;;;;5026895;28;45586;-64
2022/12/11 07:41:09;;;;;;;;;24.75;19.50;;;;;;;;5019595;28;45319;-63
2022/12/11 07:43:35;;;;;;;;;20.25;12.75;;;;;;;;5020853;28;45313;-63
2022/12/11 07:46:10;;;;;;;;;17.50;12.75;;;;;;;;5020136;28;45304;-64
2022/12/11 07:48:36;;;;;;;;;22.25;16.75;;;;;;;;5019852;28;46015;-63
2022/12/11 07:51:13;;;;;;;;;23.25;18.00;;;;;;;;5018286;28;45279;-63
2022/12/11 07:53:39;;;;;;;;;24.75;23.75;;;;;;;;5018030;28;45454;-63
2022/12/11 07:56:04;;;;;;;;;25.00;20.00;;;;;;;;5020027;28;45221;-63
2022/12/11 07:58:29;;;;;;;;;24.00;17.50;;;;;;;;5019773;28;45291;-63
2022/12/11 08:00:54;;;;;;;;;31.75;22.00;;;;;;;;5019617;28;45442;-64
2022/12/11 08:03:19;;;;;;;;;36.00;22.50;;;;;;;;5020272;28;45264;-63
2022/12/11 08:05:48;;;;;;;;;32.25;25.00;;;;;;;;5020295;28;45436;-63
2022/12/11 08:08:14;;;;;;;;;31.00;23.25;;;;;;;;5019489;28;45463;-63
2022/12/11 08:10:39;;;;;;;;;28.75;23.75;;;;;;;;5029705;28;45407;-63
2022/12/11 08:13:04;;;;;;;;;25.50;23.50;;;;;;;;5019773;28;46246;-63
2022/12/11 08:15:29;;;;;;;;;37.25;31.75;;;;;;;;5020198;28;45446;-63
2022/12/11 08:17:55;;;;;;;;;32.25;28.50;;;;;;;;5019335;28;45462;-63
2022/12/11 08:20:20;;;;;;;;;29.25;25.00;;;;;;;;5020156;28;45443;-63
2022/12/11 08:22:45;;;;;;;;;34.25;30.75;;;;;;;;5017984;28;45261;-63
2022/12/11 08:25:10;;;;;;;;;37.25;29.00;;;;;;;;5018729;28;45372;-64
2022/12/11 08:27:36;;;;;;;;;36.50;33.25;;;;;;;;5019722;28;46263;-63
2022/12/11 08:30:01;;;;;;;;;38.25;31.25;;;;;;;;5019237;28;45351;-64
2022/12/11 08:32:26;;;;;;;;;36.50;26.25;;;;;;;;5019868;28;45252;-64
2022/12/11 08:34:51;;;;;;;;;45.00;33.25;;;;;;;;5019573;28;45341;-64
2022/12/11 08:37:16;;;;;;;;;40.00;29.00;;;;;;;;5019044;28;45218;-63
2022/12/11 08:39:42;;;;;;;;;33.50;25.00;;;;;;;;5019940;28;45368;-64
2022/12/11 08:42:07;;;;;;;;;42.75;29.75;;;;;;;;5019575;28;45308;-64
2022/12/11 08:44:33;;;;;;;;;35.50;31.75;;;;;;;;5019561;28;45304;-64
2022/12/11 08:46:58;;;;;;;;;44.00;29.25;;;;;;;;5016719;28;46115;-64
2022/12/11 08:49:23;;;;;;;;;46.25;34.75;;;;;;;;5019300;28;45380;-64
2022/12/11 08:51:48;;;;;;;;;27.75;21.25;;;;;;;;5018934;28;45570;-63
2022/12/11 08:54:14;;;;;;;;;33.50;29.75;;;;;;;;5017602;28;45288;-64
2022/12/11 08:56:39;;;;;;;;;38.50;28.25;;;;;;;;5020672;28;45935;-64
2022/12/11 08:59:05;;;;;;;;;30.25;22.25;;;;;;;;5018840;28;45226;-64
2022/12/11 09:01:30;;;;;;;;;34.50;29.00;;;;;;;;5018032;28;45532;-64
2022/12/11 09:03:55;;;;;;;;;36.00;22.75;;;;;;;;5018384;28;45649;-61
2022/12/11 09:06:22;;;;;;;;;48.00;37.00;;;;;;;;5019137;28;45412;-65
2022/12/11 09:08:47;;;;;;;;;42.00;31.25;;;;;;;;5016463;28;45437;-66
2022/12/11 09:11:14;;;;;;;;;42.75;32.00;;;;;;;;5016849;28;46646;-65
2022/12/11 09:13:40;;;;;;;;;35.00;26.50;;;;;;;;5016771;28;45506;-65
2022/12/11 09:16:08;;;;;;;;;35.50;27.50;;;;;;;;5011845;28;45351;-66
2022/12/11 09:18:33;;;;;;;;;52.25;33.00;;;;;;;;5015395;28;45672;-65
2022/12/11 09:21:02;;;;;;;;;45.00;33.50;;;;;;;;5018153;28;45730;-65
2022/12/11 09:23:27;;;;;;;;;45.25;37.00;;;;;;;;5012573;28;45343;-65
2022/12/11 09:25:53;;;;;;;;;38.25;36.00;;;;;;;;5016642;28;46115;-66
2022/12/11 09:28:18;;;;;;;;;54.00;34.00;;;;;;;;5014759;28;45249;-65
2022/12/11 09:30:44;;;;;;;;;43.00;38.50;;;;;;;;5016395;28;45428;-64
2022/12/11 09:33:09;;;;;;;;;39.75;31.25;;;;;;;;5018755;28;45493;-64
2022/12/11 09:35:34;;;;;;;;;45.00;35.75;;;;;;;;5018263;28;45544;-64
2022/12/11 09:37:59;;;;;;;;;36.75;28.50;;;;;;;;5017518;28;45430;-64
2022/12/11 09:40:24;;;;;;;;;30.50;25.25;;;;;;;;5017151;28;45507;-64
2022/12/11 09:42:53;;;;;;;;;39.50;28.25;;;;;;;;5018422;28;45302;-64
2022/12/11 09:45:19;;;;;;;;;36.75;29.75;;;;;;;;5017942;28;46204;-64
2022/12/11 09:47:48;;;;;;;;;46.25;37.75;;;;;;;;5016353;28;45273;-65
2022/12/11 09:50:14;;;;;;;;;39.75;33.75;;;;;;;;5022677;28;45446;-64
2022/12/11 09:52:47;;;;;;;;;43.00;31.00;;;;;;;;5022732;28;45285;-65
2022/12/11 09:55:18;;;;;;;;;39.50;31.50;;;;;;;;5018286;28;46070;-64
2022/12/11 09:57:46;;;;;;;;;38.75;30.00;;;;;;;;5020480;28;45240;-65
2022/12/11 10:00:19;;;;;;;;;33.00;27.25;;;;;;;;5021335;28;45583;-64
2022/12/11 10:03:00;;;;;;;;;33.00;23.75;;;;;;;;5018973;28;45331;-64
2022/12/11 10:05:28;;;;;;;;;36.50;30.50;;;;;;;;5021586;28;46220;-66
2022/12/11 10:07:59;;;;;;;;;20.75;14.50;;;;;;;;5021420;28;45324;-66
2022/12/11 10:10:47;;;;;;;;;39.75;30.00;;;;;;;;5025795;28;45379;-65
2022/12/11 10:13:20;;;;;;;;;41.75;30.00;;;;;;;;5012362;28;45704;-65
2022/12/11 10:15:58;;;;;;;;;45.75;36.25;;;;;;;;5020394;28;46116;-66
2022/12/11 10:18:25;;;;;;;;;46.00;37.50;;;;;;;;5021324;28;45349;-65
2022/12/11 10:20:51;;;;;;;;;38.50;30.75;;;;;;;;5019127;28;45431;-66
2022/12/11 10:23:52;;;;;;;;;33.50;30.75;;;;;;;;5021652;28;45344;-65
2022/12/11 10:26:19;;;;;;;;;28.50;25.75;;;;;;;;4979544;28;45440;-66
2022/12/11 10:28:44;;;;;;;;;34.00;30.00;;;;;;;;5009948;28;45589;-66
2022/12/11 10:31:15;;;;;;;;;43.00;34.75;;;;;;;;5021181;28;45759;-65
2022/12/11 10:33:40;;;;;;;;;31.50;28.50;;;;;;;;5020528;28;45433;-64
2022/12/11 10:36:06;;;;;;;;;38.50;26.75;;;;;;;;5021941;28;45681;-66
2022/12/11 10:38:33;;;;;;;;;36.00;27.75;;;;;;;;5020933;28;45291;-65
2022/12/11 10:41:10;;;;;;;;;40.75;31.00;;;;;;;;5019849;28;45806;-65
2022/12/11 10:43:37;;;;;;;;;41.75;33.00;;;;;;;;5020087;28;45472;-66
2022/12/11 10:46:03;;;;;;;;;41.25;32.00;;;;;;;;5021923;28;46324;-66
2022/12/11 10:48:28;;;;;;;;;33.00;24.50;;;;;;;;5017681;28;45433;-66
2022/12/11 10:50:55;;;;;;;;;36.75;32.25;;;;;;;;5022084;28;45553;-65
2022/12/11 10:53:21;;;;;;;;;33.50;26.75;;;;;;;;5022099;28;45352;-66
2022/12/11 10:55:47;;;;;;;;;34.25;31.00;;;;;;;;5017283;28;46153;-64
2022/12/11 10:58:17;;;;;;;;;37.75;29.00;;;;;;;;5023683;28;45779;-64
2022/12/11 11:00:42;;;;;;;;;36.25;27.00;;;;;;;;5023129;28;45683;-63
2022/12/11 11:03:24;;;;;;;;;27.50;25.25;;;;;;;;5025188;28;45738;-64
2022/12/11 11:06:00;;;;;;;;;33.50;27.50;;;;;;;;5021374;28;46946;-64
2022/12/11 11:08:26;;;;;;;;;27.00;25.00;;;;;;;;5011029;28;45352;-64
2022/12/11 11:11:00;;;;;;;;;30.75;24.75;;;;;;;;5027281;28;45478;-64
2022/12/11 11:13:27;;;;;;;;;36.50;27.00;;;;;;;;5009168;28;45423;-63
2022/12/11 11:16:08;;;;;;;;;42.50;34.00;;;;;;;;5015964;28;46249;-64
2022/12/11 11:18:33;;;;;;;;;41.25;28.25;;;;;;;;5020996;28;45376;-62
2022/12/11 11:20:59;;;;;;;;;35.00;29.75;;;;;;;;5018403;28;45653;-62
2022/12/11 11:23:25;;;;;;;;;34.50;30.00;;;;;;;;5017243;28;45290;-61
2022/12/11 11:25:55;;;;;;;;;41.00;33.50;;;;;;;;5017118;28;46237;-62
2022/12/11 11:28:46;;;;;;;;;36.25;28.50;;;;;;;;5020996;28;45382;-62
2022/12/11 11:31:12;;;;;;;;;33.75;25.50;;;;;;;;5009648;28;45347;-62
2022/12/11 11:33:48;;;;;;;;;27.00;23.00;;;;;;;;5020573;28;45518;-61
2022/12/11 11:36:19;;;;;;;;;30.25;26.75;;;;;;;;5020696;28;46187;-61
2022/12/11 11:38:48;;;;;;;;;29.25;24.75;;;;;;;;5024424;28;45419;-63
2022/12/11 11:41:32;;;;;;;;;39.25;30.25;;;;;;;;5024357;28;45684;-63
2022/12/11 11:43:59;;;;;;;;;25.00;21.75;;;;;;;;5026741;28;45332;-63
2022/12/11 11:46:37;;;;;;;;;30.25;28.00;;;;;;;;5020432;28;45361;-63
2022/12/11 11:49:12;;;;;;;;;31.00;25.75;;;;;;;;5027856;28;45253;-63
2022/12/11 11:51:37;;;;;;;;;33.00;30.00;;;;;;;;5030099;28;45532;-63
2022/12/11 11:54:08;;;;;;;;;39.00;26.00;;;;;;;;5021355;28;45756;-63
2022/12/11 11:56:36;;;;;;;;;40.50;31.00;;;;;;;;5022881;28;45462;-62
2022/12/11 11:59:16;;;;;;;;;29.00;25.50;;;;;;;;5022234;28;45511;-62
2022/12/11 12:01:42;;;;;;;;;27.25;24.25;;;;;;;;5019711;28;45606;-62
2022/12/11 12:04:08;;;;;;;;;34.00;27.75;;;;;;;;5034531;28;45510;-62
2022/12/11 12:06:36;;;;;;;;;33.67;31.33;;;;;;;;5022165;28;45420;-62
2022/12/11 12:09:08;;;;;;;;;33.67;21.33;;;;;;;;5033971;28;45465;-63
2022/12/11 12:11:48;;;;;;;;;38.00;32.00;;;;;;;;5027390;28;45694;-62
2022/12/11 12:14:20;;;;;;;;;37.25;27.25;;;;;;;;5020260;28;45539;-63
2022/12/11 12:16:54;;;;;;;;;38.75;27.00;;;;;;;;5023255;28;46371;-63
2022/12/11 12:19:48;;;;;;;;;39.75;27.25;;;;;;;;5028111;28;45430;-62
2022/12/11 12:22:24;;;;;;;;;26.50;19.00;;;;;;;;5009705;28;45425;-62
2022/12/11 12:25:01;;;;;;;;;34.50;28.50;;;;;;;;5022580;28;45322;-63
2022/12/11 12:27:44;;;;;;;;;28.25;23.50;;;;;;;;5022274;28;46040;-63
2022/12/11 12:30:10;;;;;;;;;34.25;30.75;;;;;;;;5015053;28;45490;-62
2022/12/11 12:32:45;;;;;;;;;31.00;28.75;;;;;;;;5027748;28;45475;-63
2022/12/11 12:35:10;;;;;;;;;28.50;26.00;;;;;;;;5020830;28;45541;-62
2022/12/11 12:37:35;;;;;;;;;31.50;28.75;;;;;;;;5019337;28;45881;-62
2022/12/11 12:40:12;;;;;;;;;39.25;31.50;;;;;;;;5028444;28;45353;-62
2022/12/11 12:42:44;;;;;;;;;35.25;32.25;;;;;;;;5034656;28;45437;-62
2022/12/11 12:45:12;;;;;;;;;32.50;26.75;;;;;;;;5034638;28;45449;-62
2022/12/11 12:47:37;;;;;;;;;34.50;33.75;;;;;;;;5007666;28;45351;-62
2022/12/11 12:50:03;;;;;;;;;30.75;27.00;;;;;;;;5026189;28;45318;-62
2022/12/11 12:52:36;;;;;;;;;34.75;30.25;;;;;;;;5019746;28;45591;-62
2022/12/11 12:55:21;;;;;;;;;35.75;31.50;;;;;;;;5020211;28;45384;-62
2022/12/11 12:58:06;;;;;;;;;37.75;31.50;;;;;;;;5026967;28;46160;-62
2022/12/11 13:00:33;;;;;;;;;45.75;37.00;;;;;;;;5019129;28;45321;-62
2022/12/11 13:03:01;;;;;;;;;33.00;28.75;;;;;;;;5019001;28;45170;-62
2022/12/11 13:05:31;;;;;;;;;34.00;31.25;;;;;;;;5032079;28;45431;-62
2022/12/11 13:07:58;;;;;;;;;37.50;35.50;;;;;;;;5025290;28;45189;-62
2022/12/11 13:10:28;;;;;;;;;39.25;32.50;;;;;;;;5030990;28;45343;-62
2022/12/11 13:12:54;;;;;;;;;38.75;30.75;;;;;;;;5027762;28;45400;-62
2022/12/11 13:15:28;;;;;;;;;37.50;32.50;;;;;;;;5030223;28;45500;-62
2022/12/11 13:17:54;;;;;;;;;38.25;34.00;;;;;;;;5028829;28;46110;-62
2022/12/11 13:20:21;;;;;;;;;44.25;34.25;;;;;;;;5029294;28;45468;-62
2022/12/11 13:22:50;;;;;;;;;40.50;32.75;;;;;;;;5029641;28;45464;-62
2022/12/11 13:25:18;;;;;;;;;39.00;33.25;;;;;;;;5017852;28;45232;-62
2022/12/11 13:27:44;;;;;;;;;36.25;30.50;;;;;;;;5030302;28;45299;-61
2022/12/11 13:30:15;;;;;;;;;39.50;30.00;;;;;;;;5029172;28;45444;-61
2022/12/11 13:32:42;;;;;;;;;33.50;28.75;;;;;;;;5024287;28;45290;-61
2022/12/11 13:35:13;;;;;;;;;36.25;32.00;;;;;;;;5028402;28;45378;-62
2022/12/11 13:37:42;;;;;;;;;44.50;37.75;;;;;;;;5030947;28;46251;-61
2022/12/11 13:40:15;;;;;;;;;33.50;28.75;;;;;;;;5021451;28;45544;-62
2022/12/11 13:42:48;;;;;;;;;37.00;34.75;;;;;;;;5019226;28;45405;-62
2022/12/11 13:45:25;;;;;;;;;40.50;36.00;;;;;;;;5022215;28;45375;-62
2022/12/11 13:47:51;;;;;;;;;48.00;35.50;;;;;;;;5025213;28;45686;-62
2022/12/11 13:50:30;;;;;;;;;44.75;36.75;;;;;;;;5022656;28;45304;-62
2022/12/11 13:52:56;;;;;;;;;38.00;33.75;;;;;;;;5016327;28;45288;-62
2022/12/11 13:55:29;;;;;;;;;46.25;35.25;;;;;;;;5024631;28;45597;-62
2022/12/11 13:57:55;;;;;;;;;48.75;38.75;;;;;;;;5023670;28;45401;-63
2022/12/11 14:00:22;;;;;;;;;49.25;34.00;;;;;;;;5022854;28;45563;-62
2022/12/11 14:02:47;;;;;;;;;40.00;36.00;;;;;;;;5018852;28;45429;-62
2022/12/11 14:05:14;;;;;;;;;47.25;38.75;;;;;;;;5022305;28;45293;-62
2022/12/11 14:07:47;;;;;;;;;40.25;35.25;;;;;;;;5018137;28;46142;-62
2022/12/11 14:10:16;;;;;;;;;45.00;38.50;;;;;;;;5022601;28;45620;-62
2022/12/11 14:12:56;;;;;;;;;41.75;34.75;;;;;;;;5018619;28;45287;-63
2022/12/11 14:15:22;;;;;;;;;37.00;35.50;;;;;;;;5012256;28;45714;-62
2022/12/11 14:17:47;;;;;;;;;41.25;33.50;;;;;;;;5022434;28;45377;-62
2022/12/11 14:20:21;;;;;;;;;53.00;39.75;;;;;;;;5023367;28;45612;-62
2022/12/11 14:22:47;;;;;;;;;46.00;37.25;;;;;;;;5018048;28;45459;-63
2022/12/11 14:25:18;;;;;;;;;42.00;35.00;;;;;;;;5018135;28;45499;-62
2022/12/11 14:27:51;;;;;;;;;46.00;38.25;;;;;;;;5024781;28;45460;-62
2022/12/11 14:30:20;;;;;;;;;38.00;34.25;;;;;;;;5020019;28;45423;-62
2022/12/11 14:32:45;;;;;;;;;52.25;40.00;;;;;;;;5019897;28;45676;-62
2022/12/11 14:35:21;;;;;;;;;34.25;32.00;;;;;;;;5024562;28;45664;-62
2022/12/11 14:37:47;;;;;;;;;41.00;33.00;;;;;;;;5022605;28;45410;-62
2022/12/11 14:40:17;;;;;;;;;37.75;34.50;;;;;;;;5019383;28;45763;-62
2022/12/11 14:42:47;;;;;;;;;41.50;36.50;;;;;;;;5024528;28;45324;-62
2022/12/11 14:45:21;;;;;;;;;99.50;72.00;;;;;;;;5024336;28;45736;-62
2022/12/11 14:47:47;;;;;;;;;62.75;47.25;;;;;;;;5028055;28;46195;-62
2022/12/11 14:50:19;;;;;;;;;38.75;36.25;;;;;;;;5025484;28;45812;-62
2022/12/11 14:52:50;;;;;;;;;50.50;34.50;;;;;;;;5017884;28;45461;-62
2022/12/11 14:55:23;;;;;;;;;63.00;40.00;;;;;;;;5023491;28;45474;-62
2022/12/11 14:57:49;;;;;;;;;43.50;36.50;;;;;;;;5024576;28;46211;-62
2022/12/11 15:00:21;;;;;;;;;43.25;40.25;;;;;;;;5024862;28;45462;-62
2022/12/11 15:02:55;;;;;;;;;34.75;23.00;;;;;;;;5024998;28;45535;-63
2022/12/11 15:05:20;;;;;;;;;36.25;33.50;;;;;;;;5025424;28;45315;-63
2022/12/11 15:07:57;;;;;;;;;50.50;39.25;;;;;;;;5024794;28;46809;-63
2022/12/11 15:10:34;;;;;;;;;40.50;29.50;;;;;;;;5025170;28;45288;-63
2022/12/11 15:12:59;;;;;;;;;44.75;38.50;;;;;;;;5019191;28;45263;-63
2022/12/11 15:15:26;;;;;;;;;59.75;47.50;;;;;;;;5019679;28;45804;-63
2022/12/11 15:17:51;;;;;;;;;48.75;40.00;;;;;;;;5020733;28;45301;-63
2022/12/11 15:20:25;;;;;;;;;47.50;39.25;;;;;;;;5020721;28;45395;-63
2022/12/11 15:22:51;;;;;;;;;47.00;39.75;;;;;;;;5022784;28;45409;-63
2022/12/11 15:25:23;;;;;;;;;52.75;42.50;;;;;;;;5021570;28;45281;-63
2022/12/11 15:27:51;;;;;;;;;47.50;41.50;;;;;;;;5028487;28;47073;-63
2022/12/11 15:30:17;;;;;;;;;51.25;41.00;;;;;;;;5025531;28;45735;-63
2022/12/11 15:32:42;;;;;;;;;56.25;40.25;;;;;;;;5020520;28;45458;-63
2022/12/11 15:35:23;;;;;;;;;42.75;38.75;;;;;;;;5021011;28;45417;-63
2022/12/11 15:37:57;;;;;;;;;57.50;45.00;;;;;;;;5025025;28;45427;-63
2022/12/11 15:40:22;;;;;;;;;54.25;41.00;;;;;;;;5023873;28;45188;-63
2022/12/11 15:42:47;;;;;;;;;56.50;42.50;;;;;;;;5020430;28;45137;-63
2022/12/11 15:45:20;;;;;;;;;55.00;43.25;;;;;;;;5023074;28;45419;-63
2022/12/11 15:47:46;;;;;;;;;55.75;45.00;;;;;;;;5025108;28;46291;-63
2022/12/11 15:50:16;;;;;;;;;58.75;45.50;;;;;;;;5020501;28;45411;-63
2022/12/11 15:52:41;;;;;;;;;64.75;47.25;;;;;;;;5019039;28;45651;-63
2022/12/11 15:55:07;;;;;;;;;48.25;39.75;;;;;;;;5018595;28;45438;-63
2022/12/11 15:57:32;;;;;;;;;60.25;45.00;;;;;;;;5024226;28;45954;-63
2022/12/11 15:59:58;;;;;;;;;55.00;41.50;;;;;;;;5024299;28;45402;-63
2022/12/11 16:02:23;;;;;;;;;61.75;45.25;;;;;;;;5022119;28;45248;-63
2022/12/11 16:04:48;;;;;;;;;45.75;39.00;;;;;;;;5024264;28;45383;-63
2022/12/11 16:07:15;;;;;;;;;36.00;33.00;;;;;;;;5020203;28;46073;-63
2022/12/11 16:09:40;;;;;;;;;49.00;36.75;;;;;;;;5024090;28;45642;-63
2022/12/11 16:12:06;;;;;;;;;56.50;41.00;;;;;;;;5024393;28;45286;-63
2022/12/11 16:14:31;;;;;;;;;51.25;39.25;;;;;;;;5020020;28;45415;-63
2022/12/11 16:16:56;;;;;;;;;45.00;38.75;;;;;;;;5019524;28;46311;-63
2022/12/11 16:19:21;;;;;;;;;57.00;42.50;;;;;;;;5020173;28;45402;-63
2022/12/11 16:21:46;;;;;;;;;57.25;43.75;;;;;;;;5023178;28;45312;-63
2022/12/11 16:24:12;;;;;;;;;54.25;40.25;;;;;;;;5019993;28;45856;-63
2022/12/11 16:26:37;;;;;;;;;62.75;48.25;;;;;;;;5024917;28;45256;-63
2022/12/11 16:29:02;;;;;;;;;70.00;48.75;;;;;;;;5018620;28;45427;-63
2022/12/11 16:31:28;;;;;;;;;74.25;59.50;;;;;;;;5030316;28;45442;-63
2022/12/11 16:33:53;;;;;;;;;76.50;60.75;;;;;;;;5017858;28;45555;-63
2022/12/11 16:36:18;;;;;;;;;58.75;48.25;;;;;;;;5019736;28;45396;-63
2022/12/11 16:38:45;;;;;;;;;70.25;48.00;;;;;;;;5017704;28;45556;-63
2022/12/11 16:41:10;;;;;;;;;64.00;49.50;;;;;;;;5025644;28;45365;-63
2022/12/11 16:43:35;;;;;;;;;62.50;47.75;;;;;;;;5021044;28;45685;-63
2022/12/11 16:46:01;;;;;;;;;71.75;53.00;;;;;;;;5025352;28;46277;-63
2022/12/11 16:48:26;;;;;;;;;70.25;49.00;;;;;;;;5021272;28;45229;-63
2022/12/11 16:50:52;;;;;;;;;60.75;47.25;;;;;;;;5019379;28;45427;-63
2022/12/11 16:53:17;;;;;;;;;62.00;50.25;;;;;;;;5021699;28;45644;-63
2022/12/11 16:55:42;;;;;;;;;64.00;47.00;;;;;;;;5026340;28;46120;-63
2022/12/11 16:58:08;;;;;;;;;59.25;47.25;;;;;;;;5022732;28;45327;-63
2022/12/11 17:00:33;;;;;;;;;62.00;49.25;;;;;;;;5021981;28;45347;-63
2022/12/11 17:02:58;;;;;;;;;59.50;46.75;;;;;;;;5022930;28;45323;-63
2022/12/11 17:05:23;;;;;;;;;55.25;43.50;;;;;;;;5017494;28;46955;-63
2022/12/11 17:07:49;;;;;;;;;59.25;49.00;;;;;;;;5021422;28;45450;-63
2022/12/11 17:10:14;;;;;;;;;59.50;44.25;;;;;;;;5021135;28;45402;-63
2022/12/11 17:12:39;;;;;;;;;69.50;52.00;;;;;;;;5019333;28;45291;-63
2022/12/11 17:15:05;;;;;;;;;64.25;49.00;;;;;;;;5020167;28;45520;-63
2022/12/11 17:17:30;;;;;;;;;62.50;48.75;;;;;;;;5017745;28;45686;-63
2022/12/11 17:19:55;;;;;;;;;59.00;46.00;;;;;;;;5017366;28;45433;-63
2022/12/11 17:22:20;;;;;;;;;66.00;51.00;;;;;;;;5018982;28;45668;-63
2022/12/11 17:24:45;;;;;;;;;65.00;51.50;;;;;;;;5018250;28;46151;-63
2022/12/11 17:27:11;;;;;;;;;54.50;46.00;;;;;;;;5018986;28;45434;-63
2022/12/11 17:29:36;;;;;;;;;61.25;48.75;;;;;;;;5021122;28;45556;-63
2022/12/11 17:32:02;;;;;;;;;72.00;51.50;;;;;;;;5017283;28;45700;-63
2022/12/11 17:34:27;;;;;;;;;68.75;51.25;;;;;;;;5014384;28;46072;-64
2022/12/11 17:36:52;;;;;;;;;66.50;53.25;;;;;;;;5014018;28;45854;-63
2022/12/11 17:39:17;;;;;;;;;75.25;55.50;;;;;;;;5018691;28;45701;-63
2022/12/11 17:41:42;;;;;;;;;70.00;50.50;;;;;;;;5018462;28;45646;-63
2022/12/11 17:44:08;;;;;;;;;70.75;49.50;;;;;;;;5018579;28;46095;-63
2022/12/11 17:46:33;;;;;;;;;67.25;49.75;;;;;;;;5019336;28;45376;-63
2022/12/11 17:49:00;;;;;;;;;64.00;49.00;;;;;;;;5018312;28;45264;-63
2022/12/11 17:51:26;;;;;;;;;63.00;50.00;;;;;;;;5018492;28;46597;-63
2022/12/11 17:53:51;;;;;;;;;60.00;46.25;;;;;;;;5014198;28;48315;-63
2022/12/11 17:56:17;;;;;;;;;70.75;51.00;;;;;;;;5013422;28;45478;-63
2022/12/11 17:58:42;;;;;;;;;61.75;48.75;;;;;;;;5018014;28;45634;-63
2022/12/11 18:01:09;;;;;;;;;52.75;44.75;;;;;;;;5011514;28;45735;-64
2022/12/11 18:03:35;;;;;;;;;60.50;46.00;;;;;;;;5015112;28;45440;-63
2022/12/11 18:06:03;;;;;;;;;69.25;51.00;;;;;;;;5017243;28;45392;-64
2022/12/11 18:08:28;;;;;;;;;77.00;56.25;;;;;;;;5018009;28;45400;-64
2022/12/11 18:10:54;;;;;;;;;70.75;52.00;;;;;;;;5014835;28;45877;-64
2022/12/11 18:13:20;;;;;;;;;68.25;53.00;;;;;;;;5016474;28;46128;-64
2022/12/11 18:15:46;;;;;;;;;61.50;45.00;;;;;;;;5017318;28;45413;-64
2022/12/11 18:18:11;;;;;;;;;60.75;48.50;;;;;;;;5016149;28;45490;-64
2022/12/11 18:20:37;;;;;;;;;62.00;48.75;;;;;;;;5029521;28;45488;-64
2022/12/11 18:23:02;;;;;;;;;71.75;53.75;;;;;;;;5019780;28;46471;-64
2022/12/11 18:25:28;;;;;;;;;67.25;51.00;;;;;;;;5020655;28;45483;-64
2022/12/11 18:27:56;;;;;;;;;68.00;52.75;;;;;;;;5019109;28;45735;-64
2022/12/11 18:30:22;;;;;;;;;69.25;53.25;;;;;;;;5019387;28;45558;-64
2022/12/11 18:32:48;;;;;;;;;70.25;56.00;;;;;;;;5019499;28;46273;-60
2022/12/11 18:35:14;;;;;;;;;71.25;57.00;;;;;;;;5019658;28;45512;-64
2022/12/11 18:37:40;;;;;;;;;64.25;52.50;;;;;;;;5022612;28;46108;-64
2022/12/11 18:40:06;;;;;;;;;58.25;48.00;;;;;;;;5020437;28;45363;-64
2022/12/11 18:42:31;;;;;;;;;73.75;53.50;;;;;;;;5008760;28;46053;-64
2022/12/11 18:44:56;;;;;;;;;70.50;52.50;;;;;;;;5013270;28;45404;-64
2022/12/11 18:47:22;;;;;;;;;64.75;46.25;;;;;;;;5013515;28;45471;-64
2022/12/11 18:49:47;;;;;;;;;72.00;55.25;;;;;;;;5019465;28;45672;-64
2022/12/11 18:52:13;;;;;;;;;71.25;49.50;;;;;;;;5019350;28;46659;-64
2022/12/11 18:54:38;;;;;;;;;67.50;52.75;;;;;;;;5019979;28;45311;-64
2022/12/11 18:57:04;;;;;;;;;63.50;49.75;;;;;;;;5014437;28;45753;-64
2022/12/11 18:59:29;;;;;;;;;60.75;48.25;;;;;;;;5019681;28;45363;-63
2022/12/11 19:01:54;;;;;;;;;58.25;47.00;;;;;;;;5016752;28;46326;-64
2022/12/11 19:04:19;;;;;;;;;55.00;45.50;;;;;;;;5024371;28;45435;-63
2022/12/11 19:06:44;;;;;;;;;58.75;45.50;;;;;;;;5014312;28;45668;-64
2022/12/11 19:09:10;;;;;;;;;68.25;52.00;;;;;;;;5020970;28;45355;-63
2022/12/11 19:11:37;;;;;;;;;66.25;48.25;;;;;;;;5012836;28;45764;-63
2022/12/11 19:14:03;;;;;;;;;69.50;50.00;;;;;;;;5013737;28;45356;-63
2022/12/11 19:16:32;;;;;;;;;60.75;47.00;;;;;;;;5011664;28;45436;-63
2022/12/11 19:18:58;;;;;;;;;57.00;47.75;;;;;;;;5018919;28;45656;-63
2022/12/11 19:21:23;;;;;;;;;62.50;49.50;;;;;;;;5018733;28;46753;-63
2022/12/11 19:23:48;;;;;;;;;72.50;49.25;;;;;;;;5016503;28;45741;-63
2022/12/11 19:26:18;;;;;;;;;73.25;51.00;;;;;;;;5012604;28;45795;-64
2022/12/11 19:28:44;;;;;;;;;60.25;46.50;;;;;;;;5018621;28;45529;-64
2022/12/11 19:31:10;;;;;;;;;66.25;51.75;;;;;;;;5018222;28;45427;-63
2022/12/11 19:33:36;;;;;;;;;68.50;53.00;;;;;;;;5013268;28;46075;-63
2022/12/11 19:36:02;;;;;;;;;75.50;50.00;;;;;;;;5019599;28;45661;-63
2022/12/11 19:38:27;;;;;;;;;68.00;49.75;;;;;;;;5019641;28;45371;-64
2022/12/11 19:40:53;;;;;;;;;65.00;49.75;;;;;;;;5021540;28;46030;-64
2022/12/11 19:43:18;;;;;;;;;65.25;51.00;;;;;;;;5024534;28;45551;-64
2022/12/11 19:45:44;;;;;;;;;56.50;46.75;;;;;;;;5020644;28;45370;-63
2022/12/11 19:48:09;;;;;;;;;65.25;49.00;;;;;;;;5014497;28;45281;-63
2022/12/11 19:50:35;;;;;;;;;66.00;50.75;;;;;;;;5015093;28;45490;-63
2022/12/11 19:53:00;;;;;;;;;70.00;54.75;;;;;;;;5017611;28;45558;-63
2022/12/11 19:55:25;;;;;;;;;65.25;50.00;;;;;;;;5017103;28;45684;-63
2022/12/11 19:57:50;;;;;;;;;61.50;48.50;;;;;;;;5023687;28;45649;-63
2022/12/11 20:00:16;;;;;;;;;65.25;50.75;;;;;;;;5014700;28;45842;-63
2022/12/11 20:02:41;;;;;;;;;67.25;51.00;;;;;;;;5029233;28;45285;-63
2022/12/11 20:05:07;;;;;;;;;60.75;47.00;;;;;;;;5021225;28;45454;-63
2022/12/11 20:07:32;;;;;;;;;56.25;45.00;;;;;;;;5021408;28;45556;-63
2022/12/11 20:09:59;;;;;;;;;62.25;49.75;;;;;;;;5016896;28;46221;-63
2022/12/11 20:12:24;;;;;;;;;61.75;46.25;;;;;;;;5022664;28;45382;-63
2022/12/11 20:14:49;;;;;;;;;68.25;51.75;;;;;;;;5018156;28;45454;-64
2022/12/11 20:17:14;;;;;;;;;69.25;48.75;;;;;;;;5021115;28;45435;-64
2022/12/11 20:19:39;;;;;;;;;53.00;38.00;;;;;;;;5021821;28;45712;-63
2022/12/11 20:22:05;;;;;;;;;66.00;51.00;;;;;;;;5021975;28;45318;-63
2022/12/11 20:24:30;;;;;;;;;65.00;49.50;;;;;;;;5020467;28;45395;-63
2022/12/11 20:26:56;;;;;;;;;66.75;51.50;;;;;;;;5023401;28;45548;-63
2022/12/11 20:29:21;;;;;;;;;65.00;47.75;;;;;;;;5019413;28;45966;-63
2022/12/11 20:31:48;;;;;;;;;69.50;47.50;;;;;;;;5018113;28;45604;-63
2022/12/11 20:34:14;;;;;;;;;59.75;44.25;;;;;;;;5019756;28;45702;-64
2022/12/11 20:36:39;;;;;;;;;67.75;46.75;;;;;;;;5021559;28;45411;-64
2022/12/11 20:39:04;;;;;;;;;57.00;45.00;;;;;;;;5027744;28;45579;-64
2022/12/11 20:41:29;;;;;;;;;61.00;42.25;;;;;;;;5015436;28;45568;-64
2022/12/11 20:43:54;;;;;;;;;62.50;49.25;;;;;;;;5026746;28;45476;-64
2022/12/11 20:46:21;;;;;;;;;59.75;47.50;;;;;;;;5020355;28;45288;-64
2022/12/11 20:48:47;;;;;;;;;60.00;46.00;;;;;;;;5022545;28;46167;-64
2022/12/11 20:51:13;;;;;;;;;64.00;50.75;;;;;;;;5024097;28;45404;-63
2022/12/11 20:53:38;;;;;;;;;58.50;45.00;;;;;;;;5019746;28;45351;-65
2022/12/11 20:56:11;;;;;;;;;62.25;50.50;;;;;;;;5018399;28;45485;-65
2022/12/11 20:58:36;;;;;;;;;67.75;48.25;;;;;;;;5017906;28;45639;-65
2022/12/11 21:01:02;;;;;;;;;62.00;51.25;;;;;;;;5017253;28;46451;-69
2022/12/11 21:03:28;;;;;;;;;47.00;39.25;;;;;;;;5016848;28;45378;-67
2022/12/11 21:05:53;;;;;;;;;57.00;44.50;;;;;;;;5013185;28;45272;-67
2022/12/11 21:08:19;;;;;;;;;50.00;41.00;;;;;;;;5015861;28;46299;-67
2022/12/11 21:10:47;;;;;;;;;55.25;39.50;;;;;;;;5025013;28;46358;-67
2022/12/11 21:13:12;;;;;;;;;52.75;40.25;;;;;;;;5014489;28;45447;-67
2022/12/11 21:15:38;;;;;;;;;55.25;43.00;;;;;;;;5019638;28;45757;-68
2022/12/11 21:18:04;;;;;;;;;64.25;44.75;;;;;;;;5016804;28;46523;-68
2022/12/11 21:20:29;;;;;;;;;60.00;45.00;;;;;;;;5009231;28;45484;-68